Time;durP1;ratioP1;P1;durP2;ratioP2;P2;SDS_P1;SDS_P2;PMS_P1;PMS_P2;Temp;Humidity;BMP_temperature;BMP_pressure;BME280_temperature;BME280_humidity;BME280_pressure;Samples;Min_cycle;Max_cycle;Signal;HPM_P1;HPM_P2
2023/08/20 00:02:19;;;;;;;11.43;9.80;;;;;;;24.84;70.17;100513.34;5069630;28;20043;-72
2023/08/20 00:04:48;;;;;;;15.38;9.45;;;;;;;24.70;72.03;100497.81;5068485;28;20115;-73
2023/08/20 00:07:15;;;;;;;13.90;9.43;;;;;;;24.49;72.73;100478.84;5069042;28;20032;-73
2023/08/20 00:09:41;;;;;;;15.18;10.18;;;;;;;24.40;72.74;100471.13;5069089;28;20093;-73
2023/08/20 00:12:07;;;;;;;13.48;9.75;;;;;;;24.47;73.39;100490.31;5052123;28;20044;-71
2023/08/20 00:14:56;;;;;;;17.05;10.88;;;;;;;24.33;71.74;100495.88;5069166;28;20043;-72
2023/08/20 00:17:24;;;;;;;;;;;;;;;24.26;72.97;100499.53;5053753;28;20088;-72
2023/08/20 00:19:50;;;;;;;20.23;11.20;;;;;;;24.06;72.66;100472.66;5053279;28;19916;-73
2023/08/20 00:22:16;;;;;;;16.45;10.65;;;;;;;23.81;71.35;100466.06;5071806;28;20150;-74
2023/08/20 00:24:42;;;;;;;14.43;11.32;;;;;;;23.98;71.68;100471.91;5071476;28;20063;-71
2023/08/20 00:27:08;;;;;;;16.17;11.07;;;;;;;24.04;72.02;100486.78;5070687;28;20056;-75
2023/08/20 00:29:34;;;;;;;16.33;10.80;;;;;;;23.93;70.60;100449.19;5070925;28;20025;-72
2023/08/20 00:31:59;;;;;;;13.18;10.35;;;;;;;24.12;70.02;100470.78;5070878;28;20024;-71
2023/08/20 00:34:25;;;;;;;16.80;10.82;;;;;;;24.28;70.81;100487.19;5070910;28;20401;-76
2023/08/20 00:36:50;;;;;;;14.00;12.07;;;;;;;24.25;73.36;100474.94;5070799;28;20028;-72
2023/08/20 00:39:16;;;;;;;17.45;13.13;;;;;;;24.16;74.11;100461.91;5071274;28;20024;-72
2023/08/20 00:41:41;;;;;;;15.77;12.27;;;;;;;24.32;73.76;100486.22;5069182;28;20044;-74
2023/08/20 00:44:07;;;;;;;14.55;11.98;;;;;;;24.36;73.32;100488.78;5071060;28;20028;-73
2023/08/20 00:46:32;;;;;;;13.68;11.98;;;;;;;24.21;73.91;100465.31;5071295;28;20033;-71
2023/08/20 00:48:58;;;;;;;17.20;12.50;;;;;;;23.77;76.34;100482.81;5070647;28;20055;-75
2023/08/20 00:51:24;;;;;;;15.75;11.90;;;;;;;23.47;76.68;100462.22;5070645;28;20024;-73
2023/08/20 00:53:50;;;;;;;14.13;11.63;;;;;;;23.61;76.86;100482.22;5052912;28;20086;-72
2023/08/20 00:56:16;;;;;;;15.48;12.05;;;;;;;23.54;77.79;100470.88;5068240;28;20032;-73
2023/08/20 00:58:42;;;;;;;17.95;12.60;;;;;;;23.42;78.88;100464.94;5070052;28;20032;-73
2023/08/20 01:01:07;;;;;;;15.13;11.60;;;;;;;23.32;78.95;100478.31;5052326;28;20107;-72
2023/08/20 01:03:33;;;;;;;13.68;11.63;;;;;;;23.39;77.45;100477.28;5070952;28;20122;-73
2023/08/20 01:06:14;;;;;;;15.35;11.82;;;;;;;23.64;75.99;100482.16;5070386;28;20479;-74
2023/08/20 01:08:40;;;;;;;16.42;12.25;;;;;;;23.70;75.23;100468.88;5070309;28;20029;-72
2023/08/20 01:11:33;;;;;;;14.75;11.68;;;;;;;23.68;74.75;100470.69;5070042;28;20039;-73
2023/08/20 01:14:01;;;;;;;18.52;11.95;;;;;;;23.70;74.44;100477.66;5070463;28;20068;-72
2023/08/20 01:16:26;;;;;;;20.10;11.40;;;;;;;23.66;74.14;100465.41;5068714;28;20020;-74
2023/08/20 01:18:52;;;;;;;19.52;11.95;;;;;;;23.47;74.91;100466.66;5069853;28;20170;-75
2023/08/20 01:21:31;;;;;;;18.02;11.60;;;;;;;23.74;74.17;100491.66;5069622;28;20044;-71
2023/08/20 01:24:10;;;;;;;16.95;11.55;;;;;;;23.71;74.78;100478.53;5069416;28;20415;-74
2023/08/20 01:27:00;;;;;;;23.23;11.15;;;;;;;23.67;74.69;100475.06;5070285;28;20131;-73
2023/08/20 01:29:26;;;;;;;19.67;11.65;;;;;;;23.70;74.31;100477.66;5056845;28;20024;-72
2023/08/20 01:31:54;;;;;;;20.13;11.82;;;;;;;23.71;75.00;100476.78;5070041;28;20021;-73
2023/08/20 01:34:21;;;;;;;21.42;11.32;;;;;;;23.22;75.23;100399.41;5069739;28;20033;-72
2023/08/20 01:36:46;;;;;;;18.63;11.95;;;;;;;23.62;75.70;100476.91;5069643;28;20024;-76
2023/08/20 01:39:13;;;;;;;19.08;12.00;;;;;;;23.56;75.97;100461.19;5070013;28;20491;-72
2023/08/20 01:41:38;;;;;;;19.20;12.25;;;;;;;23.27;76.40;100409.88;5069354;28;20547;-73
2023/08/20 01:44:04;;;;;;;25.75;12.00;;;;;;;23.19;77.00;100417.03;5069893;28;20046;-73
2023/08/20 01:46:29;;;;;;;22.05;11.70;;;;;;;23.27;77.49;100459.94;5065276;28;20028;-73
2023/08/20 01:48:55;;;;;;;26.80;12.63;;;;;;;22.96;78.06;100422.63;5068309;28;20043;-74
2023/08/20 01:51:21;;;;;;;29.60;12.63;;;;;;;23.27;77.47;100463.41;5069460;28;20115;-73
2023/08/20 01:53:46;;;;;;;27.42;12.02;;;;;;;23.37;77.24;100450.97;5069840;28;20052;-72
2023/08/20 01:56:13;;;;;;;28.77;12.32;;;;;;;23.53;77.73;100462.13;5051419;28;20490;-71
2023/08/20 01:58:38;;;;;;;35.15;13.88;;;;;;;23.50;77.27;100429.69;5069698;28;20446;-73
2023/08/20 02:01:03;;;;;;;30.27;12.23;;;;;;;23.73;77.01;100453.00;5069598;28;20097;-73
2023/08/20 02:03:29;;;;;;;35.33;12.88;;;;;;;23.73;76.58;100458.28;5069180;28;20024;-74
2023/08/20 02:05:54;;;;;;;43.78;13.63;;;;;;;23.62;76.90;100458.47;5069775;28;20025;-74
2023/08/20 02:08:20;;;;;;;39.72;13.80;;;;;;;23.56;77.20;100458.56;5071362;28;20043;-74
2023/08/20 02:10:46;;;;;;;35.80;13.10;;;;;;;23.51;77.10;100457.78;5074133;28;20093;-73
2023/08/20 02:13:11;;;;;;;31.50;13.40;;;;;;;23.43;76.62;100440.34;5073427;28;20028;-73
2023/08/20 02:15:37;;;;;;;28.30;13.18;;;;;;;23.61;76.50;100462.00;5072322;28;20028;-73
2023/08/20 02:18:03;;;;;;;29.90;12.65;;;;;;;23.48;76.76;100434.09;5073375;28;20430;-75
2023/08/20 02:20:28;;;;;;;26.52;13.13;;;;;;;23.63;77.28;100459.31;5075797;28;20041;-70
2023/08/20 02:22:54;;;;;;;17.45;12.50;;;;;;;23.22;78.13;100399.41;5079452;28;20037;-73
2023/08/20 02:25:19;;;;;;;16.23;12.35;;;;;;;23.63;78.10;100468.13;5079735;28;20025;-73
2023/08/20 02:27:44;;;;;;;19.70;11.95;;;;;;;23.43;77.97;100464.03;5078375;28;20056;-73
2023/08/20 02:30:13;;;;;;;20.48;12.73;;;;;;;23.18;78.36;100446.88;5072912;28;20067;-73
2023/08/20 02:32:39;;;;;;;22.83;13.50;;;;;;;23.08;79.12;100454.03;5073176;28;20511;-72
2023/08/20 02:35:05;;;;;;;23.45;13.52;;;;;;;22.99;79.83;100462.97;5074023;28;20055;-73
2023/08/20 02:37:31;;;;;;;21.05;13.45;;;;;;;22.88;79.43;100446.41;5055952;28;20407;-72
2023/08/20 02:39:57;;;;;;;16.88;12.70;;;;;;;22.98;79.40;100452.41;5072833;28;20032;-74
2023/08/20 02:42:22;;;;;;;15.57;12.55;;;;;;;22.91;79.25;100438.50;5073143;28;20020;-73
2023/08/20 02:44:48;;;;;;;15.02;12.23;;;;;;;22.80;81.04;100443.03;5073140;28;20403;-72
2023/08/20 02:47:13;;;;;;;16.67;12.65;;;;;;;22.63;81.52;100441.53;5072311;28;20024;-73
2023/08/20 02:49:39;;;;;;;17.52;12.75;;;;;;;22.66;81.49;100462.50;5055351;28;20032;-72
2023/08/20 02:52:04;;;;;;;17.60;11.70;;;;;;;22.59;81.69;100461.75;5073053;28;20036;-73
2023/08/20 02:54:32;;;;;;;17.73;12.73;;;;;;;22.67;81.74;100466.91;5072858;28;20340;-73
2023/08/20 02:56:58;;;;;;;15.80;11.68;;;;;;;22.60;82.46;100473.13;5071680;28;20162;-70
2023/08/20 02:59:23;;;;;;;19.08;11.82;;;;;;;22.26;82.99;100444.56;5073006;28;20047;-70
2023/08/20 03:01:49;;;;;;;23.27;11.57;;;;;;;22.12;80.35;100456.13;5071863;28;20471;-72
2023/08/20 03:04:14;;;;;;;28.30;11.40;;;;;;;22.17;77.95;100465.69;5072837;28;20029;-70
2023/08/20 03:06:40;;;;;;;23.15;11.75;;;;;;;22.12;77.65;100455.25;5072485;28;20032;-71
2023/08/20 03:09:05;;;;;;;27.23;12.98;;;;;;;22.13;77.37;100468.38;5067968;28;20056;-69
2023/08/20 03:11:31;;;;;;;19.80;13.25;;;;;;;22.13;77.08;100463.13;5073021;28;20040;-73
2023/08/20 03:13:56;;;;;;;23.30;13.02;;;;;;;22.19;76.83;100456.03;5070200;28;20399;-71
2023/08/20 03:16:22;;;;;;;27.23;13.77;;;;;;;22.49;76.48;100475.88;5071785;28;20104;-71
2023/08/20 03:18:47;;;;;;;22.77;12.93;;;;;;;22.43;75.81;100445.28;5072353;28;20028;-73
2023/08/20 03:21:12;;;;;;;27.35;12.55;;;;;;;22.74;77.46;100481.72;5072197;28;20160;-72
2023/08/20 03:23:38;;;;;;;18.33;12.65;;;;;;;22.64;78.04;100482.69;5072635;28;20032;-69
2023/08/20 03:26:03;;;;;;;16.77;12.38;;;;;;;22.41;79.63;100480.38;5072658;28;20032;-70
2023/08/20 03:28:29;;;;;;;18.08;12.50;;;;;;;22.32;80.45;100489.22;5072807;28;20024;-70
2023/08/20 03:30:54;;;;;;;18.90;12.80;;;;;;;22.30;80.41;100480.47;5072257;28;20093;-74
2023/08/20 03:33:19;;;;;;;18.80;11.52;;;;;;;22.23;80.37;100484.03;5072521;28;20546;-70
2023/08/20 03:35:47;;;;;;;24.35;12.52;;;;;;;22.22;80.23;100466.50;5072518;28;20032;-70
2023/08/20 03:38:12;;;;;;;18.95;12.98;;;;;;;22.45;79.08;100490.84;5072422;28;20025;-69
2023/08/20 03:40:38;;;;;;;24.40;16.92;;;;;;;22.58;77.09;100478.41;5053542;28;20447;-69
2023/08/20 03:43:03;;;;;;;29.52;19.52;;;;;;;22.75;75.81;100480.84;5072827;28;20372;-70
2023/08/20 03:45:30;;;;;;;22.45;17.90;;;;;;;22.81;75.36;100473.75;5072025;28;20024;-69
2023/08/20 03:47:55;;;;;;;20.52;12.48;;;;;;;22.80;76.34;100478.13;5072142;28;20388;-70
2023/08/20 03:50:21;;;;;;;18.33;12.32;;;;;;;22.77;76.33;100460.59;5073683;28;20083;-70
2023/08/20 03:52:46;;;;;;;19.38;12.63;;;;;;;22.98;75.36;100477.00;5090673;28;20103;-68
2023/08/20 03:55:11;;;;;;;19.67;12.80;;;;;;;22.99;76.28;100465.59;5072227;28;20395;-69
2023/08/20 03:57:37;;;;;;;21.08;13.73;;;;;;;22.20;76.96;100360.50;5072179;28;20028;-72
2023/08/20 04:00:03;;;;;;;26.80;12.77;;;;;;;22.58;77.17;100462.63;5072091;28;20020;-73
2023/08/20 04:02:29;;;;;;;23.63;10.32;;;;;;;22.33;76.01;100438.38;5070590;28;20032;-74
2023/08/20 04:04:56;;;;;;;14.23;9.55;;;;;;;22.44;75.82;100470.69;5071708;28;20553;-72
2023/08/20 04:07:22;;;;;;;17.67;9.68;;;;;;;22.09;74.87;100395.69;5072002;28;20385;-73
2023/08/20 04:09:47;;;;;;;16.60;9.10;;;;;;;22.57;74.39;100467.91;5071850;28;20031;-73
2023/08/20 04:12:13;;;;;;;16.95;8.95;;;;;;;22.69;73.62;100465.13;5071818;28;20035;-74
2023/08/20 04:14:39;;;;;;;14.45;9.70;;;;;;;22.63;73.33;100446.78;5071412;28;20794;-74
2023/08/20 04:17:04;;;;;;;12.88;8.95;;;;;;;22.81;73.17;100460.59;5053970;28;20037;-74
2023/08/20 04:19:30;;;;;;;13.23;8.90;;;;;;;22.88;72.56;100462.22;5053597;28;20484;-73
2023/08/20 04:21:55;;;;;;;13.30;9.73;;;;;;;22.76;71.58;100473.78;5071890;28;20040;-73
2023/08/20 04:24:20;;;;;;;12.13;9.18;;;;;;;22.75;71.90;100472.94;5071685;28;20029;-73
2023/08/20 04:26:46;;;;;;;14.15;9.07;;;;;;;22.83;72.84;100475.47;5068807;28;20040;-69
2023/08/20 04:29:11;;;;;;;14.93;9.23;;;;;;;22.64;74.21;100440.59;5071031;28;20078;-71
2023/08/20 04:31:36;;;;;;;12.73;9.00;;;;;;;;;;5071339;28;20020;-70
2023/08/20 04:34:02;;;;;;;16.67;9.27;;;;;;;22.84;73.19;100460.53;5071576;28;20098;-71
2023/08/20 04:36:28;;;;;;;16.30;9.80;;;;;;;22.93;73.42;100469.16;5071450;28;20020;-70
2023/08/20 04:38:54;;;;;;;13.48;9.60;;;;;;;22.93;73.44;100470.94;5070974;28;20104;-69
2023/08/20 04:41:19;;;;;;;13.23;9.65;;;;;;;22.68;73.67;100418.66;5071315;28;20051;-72
2023/08/20 04:43:44;;;;;;;14.50;8.77;;;;;;;23.04;73.02;100471.66;5070834;28;20490;-70
2023/08/20 04:46:10;;;;;;;10.55;8.10;;;;;;;23.07;72.36;100479.50;5071242;28;20074;-69
2023/08/20 04:48:35;;;;;;;10.48;8.60;;;;;;;23.03;73.54;100471.66;5071102;28;20032;-70
2023/08/20 04:51:01;;;;;;;13.52;8.02;;;;;;;23.10;72.79;100470.69;5071452;28;20047;-70
2023/08/20 04:53:26;;;;;;;14.85;8.80;;;;;;;23.15;72.34;100467.97;5053341;28;20498;-70
2023/08/20 04:55:51;;;;;;;11.18;8.48;;;;;;;23.22;71.88;100465.25;5071230;28;20031;-75
2023/08/20 04:58:17;;;;;;;10.50;7.93;;;;;;;23.30;72.01;100465.13;5071023;28;20467;-71
2023/08/20 05:00:42;;;;;;;9.70;8.00;;;;;;;23.31;70.99;100440.53;5071011;28;20544;-70
2023/08/20 05:03:08;;;;;;;11.55;7.95;;;;;;;23.25;70.49;100412.53;5071187;28;20039;-71
2023/08/20 05:05:33;;;;;;;10.65;7.97;;;;;;;23.71;70.98;100466.22;5070932;28;20024;-70
2023/08/20 05:07:59;;;;;;;11.25;7.97;;;;;;;23.79;71.05;100457.28;5070925;28;20090;-75
2023/08/20 05:10:24;;;;;;;13.02;7.70;;;;;;;23.37;71.13;100397.44;5069747;28;20066;-71
2023/08/20 05:12:49;;;;;;;10.52;7.95;;;;;;;23.65;69.96;100450.53;5070612;28;20025;-70
2023/08/20 05:15:15;;;;;;;10.40;8.20;;;;;;;23.85;70.58;100473.00;5070546;28;20115;-71
2023/08/20 05:17:40;;;;;;;11.63;7.93;;;;;;;23.89;71.92;100475.56;5071258;28;20450;-70
2023/08/20 05:20:06;;;;;;;11.32;8.27;;;;;;;23.88;70.75;100472.97;5064772;28;20045;-70
2023/08/20 05:22:32;;;;;;;13.88;7.47;;;;;;;23.92;69.32;100468.53;5050849;28;20032;-73
2023/08/20 05:24:57;;;;;;;15.82;8.77;;;;;;;23.82;70.64;100446.72;5050411;28;20029;-69
2023/08/20 05:27:22;;;;;;;11.25;7.75;;;;;;;24.08;70.18;100479.66;5050421;28;20058;-73
2023/08/20 05:29:48;;;;;;;10.60;7.80;;;;;;;24.07;69.83;100460.31;5050391;28;20625;-70
2023/08/20 05:32:14;;;;;;;11.55;8.25;;;;;;;23.93;68.26;100433.38;5050861;28;20024;-71
2023/08/20 05:34:40;;;;;;;16.38;9.93;;;;;;;24.24;68.77;100483.75;5050494;28;20512;-70
2023/08/20 05:37:05;;;;;;;24.95;16.13;;;;;;;24.16;69.36;100472.47;5050647;28;20024;-72
2023/08/20 05:39:37;;;;;;;35.03;20.83;;;;;;;24.29;68.52;100481.88;5050312;28;20036;-70
2023/08/20 05:42:03;;;;;;;18.25;11.02;;;;;;;24.37;70.43;100476.44;5050067;28;20395;-70
2023/08/20 05:44:28;;;;;;;15.95;8.82;;;;;;;24.50;68.24;100483.22;5050325;28;20025;-73
2023/08/20 05:46:54;;;;;;;11.40;7.82;;;;;;;24.60;68.05;100481.25;5050579;28;20674;-69
2023/08/20 05:49:19;;;;;;;13.50;7.43;;;;;;;24.65;68.29;100474.13;5050529;28;20037;-71
2023/08/20 05:51:45;;;;;;;11.02;8.40;;;;;;;24.78;67.37;100485.28;5032391;28;20480;-75
2023/08/20 05:54:11;;;;;;;10.25;7.32;;;;;;;24.51;66.23;100426.00;5050468;28;20048;-69
2023/08/20 05:56:37;;;;;;;9.90;7.78;;;;;;;25.01;68.69;100486.53;5050399;28;20040;-71
2023/08/20 05:59:02;;;;;;;8.75;7.57;;;;;;;25.16;65.65;100490.59;5050360;28;20459;-69
2023/08/20 06:01:28;;;;;;;9.23;6.95;;;;;;;25.31;64.61;100484.97;5050413;28;20032;-71
2023/08/20 06:03:53;;;;;;;11.00;6.97;;;;;;;25.51;64.05;100488.94;5050340;28;20036;-72
2023/08/20 06:06:18;;;;;;;9.52;7.25;;;;;;;25.66;65.11;100492.97;5050494;28;20108;-69
2023/08/20 06:08:44;;;;;;;9.23;6.95;;;;;;;25.66;63.12;100477.97;5050114;28;20037;-70
2023/08/20 06:11:09;;;;;;;12.18;7.03;;;;;;;25.71;63.28;100496.38;5050019;28;20071;-70
2023/08/20 06:13:35;;;;;;;13.73;11.27;;;;;;;25.74;63.55;100485.69;5050214;28;20036;-69
2023/08/20 06:16:00;;;;;;;10.65;7.72;;;;;;;25.88;62.26;100484.47;5050442;28;20029;-72
2023/08/20 06:18:25;;;;;;;12.40;6.95;;;;;;;25.93;62.57;100464.06;5050086;28;20043;-70
2023/08/20 06:20:51;;;;;;;8.20;6.32;;;;;;;26.08;61.73;100473.41;5061791;28;20056;-70
2023/08/20 06:23:16;;;;;;;9.88;7.00;;;;;;;26.18;61.86;100474.88;5069860;28;20052;-69
2023/08/20 06:25:42;;;;;;;41.20;24.70;;;;;;;26.28;62.92;100472.84;5069949;28;20087;-71
2023/08/20 06:28:09;;;;;;;48.38;26.10;;;;;;;26.31;62.44;100472.75;5069734;28;20033;-73
2023/08/20 06:30:35;;;;;;;49.78;21.45;;;;;;;26.35;59.26;100471.75;5034688;28;20047;-70
2023/08/20 06:33:00;;;;;;;20.48;7.05;;;;;;;26.53;56.76;100470.38;5068512;28;20024;-69
2023/08/20 06:35:26;;;;;;;12.07;7.40;;;;;;;26.24;59.27;100411.19;5069830;28;20029;-70
2023/08/20 06:37:51;;;;;;;10.45;6.50;;;;;;;26.61;57.56;100455.09;5069528;28;20100;-70
2023/08/20 06:40:16;;;;;;;11.98;6.90;;;;;;;26.27;57.12;100378.47;5068499;28;20090;-71
2023/08/20 06:42:42;;;;;;;11.18;5.90;;;;;;;27.01;56.38;100468.94;5049920;28;20033;-73
2023/08/20 06:45:09;;;;;;;9.10;6.43;;;;;;;26.84;56.46;100420.91;5049865;28;20487;-70
2023/08/20 06:47:34;;;;;;;10.05;7.32;;;;;;;27.13;55.35;100470.34;5067500;28;20024;-71
2023/08/20 06:50:00;;;;;;;9.15;5.63;;;;;;;27.20;55.18;100449.78;5069298;28;20047;-75
2023/08/20 06:52:25;;;;;;;8.80;5.35;;;;;;;27.43;54.51;100479.09;5068949;28;20021;-70
2023/08/20 06:54:50;;;;;;;18.52;13.52;;;;;;;27.44;52.58;100459.63;5071977;28;20029;-69
2023/08/20 06:57:16;;;;;;;12.85;7.47;;;;;;;27.44;54.04;100456.09;5072323;28;20028;-72
2023/08/20 06:59:43;;;;;;;8.82;5.30;;;;;;;27.49;54.07;100467.44;5073061;28;20052;-74
2023/08/20 07:02:09;;;;;;;7.80;5.15;;;;;;;27.65;52.93;100467.75;5072718;28;20047;-69
2023/08/20 07:04:35;;;;;;;10.55;5.78;;;;;;;27.62;53.44;100446.66;5072956;28;20495;-74
2023/08/20 07:07:00;;;;;;;9.55;5.40;;;;;;;27.75;53.53;100463.00;5073142;28;20158;-70
2023/08/20 07:09:26;;;;;;;18.13;13.50;;;;;;;27.43;51.81;100409.31;5072764;28;20044;-70
2023/08/20 07:11:51;;;;;;;11.27;7.97;;;;;;;27.96;52.82;100469.34;5072743;28;20103;-68
2023/08/20 07:14:17;;;;;;;9.63;6.40;;;;;;;27.98;51.17;100458.69;5072964;28;20054;-68
2023/08/20 07:16:42;;;;;;;14.68;8.10;;;;;;;28.02;51.58;100465.63;5072980;28;20025;-72
2023/08/20 07:19:07;;;;;;;6.85;5.10;;;;;;;28.05;52.25;100469.06;5072519;28;20476;-69
2023/08/20 07:21:33;;;;;;;8.02;5.35;;;;;;;28.17;51.44;100449.16;5072903;28;20048;-73
2023/08/20 07:23:58;;;;;;;9.70;4.88;;;;;;;28.48;48.44;100453.31;5072377;28;20035;-74
2023/08/20 07:26:24;;;;;;;7.40;4.93;;;;;;;28.67;48.50;100461.47;5072105;28;20095;-72
2023/08/20 07:28:59;;;;;;;6.93;4.60;;;;;;;28.84;46.20;100454.66;5072578;28;20021;-76
2023/08/20 07:31:30;;;;;;;6.00;4.80;;;;;;;29.00;47.21;100460.22;5087988;28;20433;-69
2023/08/20 07:33:56;;;;;;;8.57;4.80;;;;;;;29.14;47.49;100468.50;5072720;28;20051;-68
2023/08/20 07:36:23;;;;;;;7.60;4.55;;;;;;;29.17;47.59;100457.75;5072098;28;20384;-69
2023/08/20 07:38:50;;;;;;;18.95;5.72;;;;;;;28.76;46.88;100406.25;5071748;28;20111;-70
2023/08/20 07:41:15;;;;;;;9.18;4.80;;;;;;;29.02;45.35;100442.41;5071877;28;20557;-69
2023/08/20 07:43:41;;;;;;;8.77;5.10;;;;;;;28.97;46.59;100441.72;5072544;28;20052;-68
2023/08/20 07:46:07;;;;;;;7.40;4.18;;;;;;;29.18;48.09;100448.81;5071920;28;20086;-72
2023/08/20 07:48:33;;;;;;;7.70;4.55;;;;;;;29.33;44.41;100422.56;5072140;28;20017;-69
2023/08/20 07:50:59;;;;;;;7.57;4.60;;;;;;;29.52;47.30;100426.19;5072749;28;20039;-69
2023/08/20 07:53:25;;;;;;;7.07;4.68;;;;;;;29.49;45.49;100404.16;5079556;28;20024;-68
2023/08/20 07:55:50;;;;;;;7.60;5.20;;;;;;;29.67;44.98;100423.75;5076455;28;20404;-73
2023/08/20 07:58:16;;;;;;;13.05;4.47;;;;;;;29.66;43.41;100430.91;5076851;28;20400;-69
2023/08/20 08:00:41;;;;;;;8.40;4.32;;;;;;;29.63;44.18;100422.19;5072825;28;20391;-68
2023/08/20 08:03:07;;;;;;;6.57;3.88;;;;;;;29.81;43.44;100431.16;5072243;28;20028;-74
2023/08/20 08:05:32;;;;;;;10.43;4.80;;;;;;;30.00;45.33;100432.09;5071374;28;20021;-70
2023/08/20 08:07:58;;;;;;;6.90;4.15;;;;;;;30.04;44.40;100422.16;5072035;28;20124;-68
2023/08/20 08:10:23;;;;;;;8.82;4.70;;;;;;;30.06;43.48;100425.63;5072038;28;20081;-73
2023/08/20 08:12:49;;;;;;;8.75;4.18;;;;;;;29.82;45.43;100361.91;5071677;28;20487;-69
2023/08/20 08:15:14;;;;;;;7.55;4.55;;;;;;;30.11;42.60;100397.00;5069297;28;20037;-71
2023/08/20 08:17:40;;;;;;;7.15;4.47;;;;;;;30.41;43.76;100415.16;5071815;28;20432;-69
2023/08/20 08:20:06;;;;;;;11.60;5.05;;;;;;;30.29;41.85;100402.41;5071546;28;20059;-75
2023/08/20 08:22:31;;;;;;;7.68;4.55;;;;;;;30.39;44.34;100411.69;5071491;28;20025;-68
2023/08/20 08:24:57;;;;;;;6.25;4.50;;;;;;;30.43;41.71;100407.09;5071106;28;20043;-75
2023/08/20 08:27:22;;;;;;;6.22;4.22;;;;;;;30.36;41.80;100393.19;5069350;28;20036;-72
2023/08/20 08:29:48;;;;;;;7.68;4.00;;;;;;;30.46;42.11;100410.47;5071234;28;20028;-74
2023/08/20 08:32:13;;;;;;;9.02;4.20;;;;;;;30.59;42.66;100404.59;5071000;28;20024;-70
2023/08/20 08:34:38;;;;;;;7.55;3.97;;;;;;;30.65;42.03;100412.28;5070445;28;20020;-69
2023/08/20 08:37:04;;;;;;;7.65;3.92;;;;;;;30.78;41.21;100404.56;5070533;28;20045;-72
2023/08/20 08:39:29;;;;;;;9.23;3.75;;;;;;;30.86;39.32;100406.88;5070566;28;20107;-70
2023/08/20 08:42:02;;;;;;;7.28;3.92;;;;;;;31.03;41.00;100416.69;5071169;28;20039;-69
2023/08/20 08:44:28;;;;;;;6.15;3.67;;;;;;;31.00;40.43;100393.69;5070897;28;20491;-72
2023/08/20 08:46:54;;;;;;;10.63;4.80;;;;;;;31.31;40.23;100405.53;5071113;28;20056;-72
2023/08/20 08:49:19;;;;;;;6.85;3.95;;;;;;;31.31;39.81;100402.88;5070305;28;20025;-69
2023/08/20 08:51:46;;;;;;;5.72;4.03;;;;;;;31.29;38.73;100407.41;5070572;28;20036;-72
2023/08/20 08:54:13;;;;;;;5.55;3.58;;;;;;;31.29;37.69;100394.94;5070890;28;20399;-73
2023/08/20 08:56:39;;;;;;;7.40;4.20;;;;;;;31.41;41.91;100388.09;5070912;28;20043;-70
2023/08/20 08:59:05;;;;;;;7.13;3.85;;;;;;;31.77;39.07;100411.16;5070933;28;20391;-69
2023/08/20 09:01:31;;;;;;;6.40;3.78;;;;;;;31.86;38.23;100374.25;5070316;28;20573;-72
2023/08/20 09:03:57;;;;;;;10.57;4.30;;;;;;;32.00;39.64;100377.06;5069642;28;20036;-72
2023/08/20 09:06:22;;;;;;;8.38;4.05;;;;;;;32.05;40.24;100369.66;5052228;28;20032;-70
2023/08/20 09:08:48;;;;;;;7.50;4.45;;;;;;;32.01;35.90;100361.88;5070624;28;20046;-71
2023/08/20 09:11:13;;;;;;;8.30;4.70;;;;;;;32.08;36.05;100384.66;5069196;28;20031;-70
2023/08/20 09:13:41;;;;;;;16.45;6.70;;;;;;;32.35;38.15;100395.66;5070140;28;20032;-73
2023/08/20 09:16:08;;;;;;;12.05;4.85;;;;;;;32.53;37.75;100395.56;5070809;28;20029;-73
2023/08/20 09:18:44;;;;;;;11.93;5.43;;;;;;;32.70;36.41;100387.44;5068250;28;20028;-73
2023/08/20 09:21:11;;;;;;;12.38;4.95;;;;;;;32.95;37.25;100388.75;5069882;28;20056;-74
2023/08/20 09:23:37;;;;;;;9.45;4.10;;;;;;;33.08;37.04;100390.69;5052188;28;20135;-74
2023/08/20 09:26:04;;;;;;;6.68;4.03;;;;;;;33.09;39.61;100379.91;5070121;28;20119;-73
2023/08/20 09:28:41;;;;;;;8.55;4.15;;;;;;;33.12;34.82;100366.31;5051403;28;20028;-71
2023/08/20 09:31:06;;;;;;;11.95;5.00;;;;;;;33.32;35.40;100383.03;5070041;28;20098;-69
2023/08/20 09:33:55;;;;;;;18.33;4.93;;;;;;;33.34;35.84;100365.09;5047047;28;20056;-69
2023/08/20 09:36:30;;;;;;;8.55;4.65;;;;;;;33.62;35.20;100383.00;5046421;28;20131;-72
2023/08/20 09:38:56;;;;;;;11.80;4.45;;;;;;;33.69;34.38;100373.63;5043539;28;20041;-74
2023/08/20 09:41:25;;;;;;;13.27;4.90;;;;;;;33.75;34.00;100353.66;5047457;28;20033;-74
2023/08/20 09:44:03;;;;;;;;;;;;;;;33.86;33.82;100367.25;5047341;28;20128;-69
2023/08/20 09:46:31;;;;;;;11.27;5.00;;;;;;;33.73;34.42;100315.41;5047079;28;19955;-72
2023/08/20 09:48:57;;;;;;;15.07;5.80;;;;;;;34.10;37.36;100347.06;5047715;28;20090;-70
2023/08/20 09:51:28;;;;;;;9.73;4.80;;;;;;;34.16;35.71;100352.03;5047167;28;20833;-72
2023/08/20 09:54:32;;;;;;;9.35;5.15;;;;;;;34.25;34.50;100348.75;5046792;28;20488;-72
2023/08/20 09:57:01;;;;;;;7.63;4.38;;;;;;;34.11;33.63;100300.53;5044940;28;20045;-73
2023/08/20 09:59:28;;;;;;;11.40;4.95;;;;;;;34.48;34.98;100343.72;5047200;28;20041;-73
2023/08/20 10:01:57;;;;;;;6.30;3.67;;;;;;;34.57;34.65;100340.47;5047565;28;20098;-72
2023/08/20 10:04:23;;;;;;;7.50;4.38;;;;;;;34.65;33.00;100332.75;5046921;28;20523;-73
2023/08/20 10:06:50;;;;;;;10.23;4.55;;;;;;;34.37;32.20;100269.41;5046829;28;20044;-70
2023/08/20 10:09:17;;;;;;;13.38;4.85;;;;;;;34.93;31.93;100333.63;5047423;28;20086;-73
2023/08/20 10:11:43;;;;;;;14.40;4.65;;;;;;;34.98;32.50;100301.09;5047579;28;20139;-75
2023/08/20 10:14:09;;;;;;;15.75;5.50;;;;;;;35.23;30.12;100324.44;5047354;28;20108;-72
2023/08/20 10:16:36;;;;;;;13.00;5.38;;;;;;;35.25;31.68;100309.06;5047235;28;20231;-72
2023/08/20 10:19:03;;;;;;;8.52;4.53;;;;;;;35.47;29.02;100345.19;5046939;28;20056;-73
2023/08/20 10:21:32;;;;;;;12.02;4.65;;;;;;;35.64;29.08;100333.25;5030394;28;20053;-74
2023/08/20 10:24:04;;;;;;;7.05;4.00;;;;;;;35.75;28.12;100327.13;4973778;28;20042;-75
2023/08/20 10:26:34;;;;;;;11.93;5.20;;;;;;;35.73;29.02;100312.94;4978693;28;20053;-74
2023/08/20 10:29:41;;;;;;;13.73;4.45;;;;;;;35.91;28.89;100322.38;4969587;28;20630;-72
2023/08/20 10:32:09;;;;;;;7.70;4.25;;;;;;;36.01;29.30;100321.75;4987059;28;20108;-74
2023/08/20 10:34:37;;;;;;;9.45;4.90;;;;;;;36.20;28.27;100318.56;5011438;28;20037;-73
2023/08/20 10:37:15;;;;;;;9.18;3.90;;;;;;;36.25;27.42;100324.44;5011165;28;20648;-72
2023/08/20 10:39:44;;;;;;;11.48;5.10;;;;;;;36.21;26.99;100317.59;5011238;28;20042;-73
2023/08/20 10:42:28;;;;;;;8.73;4.78;;;;;;;36.37;26.86;100317.34;5010730;28;20046;-72
2023/08/20 10:45:00;;;;;;;7.47;4.82;;;;;;;36.33;26.69;100308.63;5010985;28;20030;-74
2023/08/20 10:47:42;;;;;;;9.40;4.90;;;;;;;36.36;27.21;100304.84;5011142;28;20030;-73
2023/08/20 10:50:10;;;;;;;13.98;4.70;;;;;;;36.47;26.85;100290.63;5010869;28;20029;-73
2023/08/20 10:52:40;;;;;;;13.60;5.22;;;;;;;36.65;26.68;100299.13;5010045;28;20030;-71
2023/08/20 10:55:08;;;;;;;9.60;4.72;;;;;;;36.78;26.37;100301.75;5010090;28;20041;-72
2023/08/20 10:57:35;;;;;;;10.40;4.22;;;;;;;36.77;25.85;100302.72;5010472;28;20037;-72
2023/08/20 11:00:11;;;;;;;8.73;4.03;;;;;;;36.83;26.86;100295.03;5010795;28;20034;-70
2023/08/20 11:02:38;;;;;;;11.23;4.72;;;;;;;36.82;26.55;100269.09;5073122;28;20016;-74
2023/08/20 11:05:18;;;;;;;10.40;4.47;;;;;;;36.84;27.07;100282.44;5066146;28;20037;-73
2023/08/20 11:08:07;;;;;;;6.85;4.30;;;;;;;36.96;29.25;100286.06;5046469;28;20037;-73
2023/08/20 11:10:34;;;;;;;6.25;4.22;;;;;;;36.78;29.43;100288.31;5045743;28;20045;-72
2023/08/20 11:13:03;;;;;;;8.82;4.40;;;;;;;36.65;28.82;100278.50;5034699;28;20119;-74
2023/08/20 11:15:29;;;;;;;6.40;4.10;;;;;;;36.78;26.54;100293.69;5037728;28;20033;-72
2023/08/20 11:17:54;;;;;;;8.90;4.45;;;;;;;36.91;26.45;100267.56;5036887;28;20060;-73